Time;durP1;ratioP1;P1;durP2;ratioP2;P2;SDS_P1;SDS_P2;PMS_P1;PMS_P2;Temp;Humidity;BMP_temperature;BMP_pressure;BME280_temperature;BME280_humidity;BME280_pressure;Samples;Min_cycle;Max_cycle;Signal;HPM_P1;HPM_P2
2023/03/16 00:09:56;;;;;;;;;;;;;;;3.27;75.48;102129.66;20474356;28;19985;-56
2023/03/16 00:20:18;;;;;;;;;;;;;;;3.23;75.26;102133.88;20470760;28;19926;-57
2023/03/16 00:30:39;;;;;;;;;;;;;;;3.26;76.19;102128.81;20465548;28;20311;-57
2023/03/16 00:41:04;;;;;;;;;;;;;;;3.17;75.50;102135.44;20450893;29;19922;-56
2023/03/16 00:51:26;;;;;;;;;;;;;;;3.13;75.64;102113.19;20486027;28;19986;-58
2023/03/16 01:01:47;;;;;;;;;;;;;;;3.13;75.89;102114.06;20471422;28;20468;-58
2023/03/16 01:12:10;;;;;;;;;;;;;;;3.13;75.05;102108.94;20447561;28;19926;-58
2023/03/16 01:22:32;;;;;;;;;;;;;;;3.08;74.76;102102.84;20452960;28;19922;-56
2023/03/16 01:32:53;;;;;;;;;;;;;;;3.06;74.46;102092.59;20473971;28;19922;-57
2023/03/16 01:43:15;;;;;;;;;;;;;;;3.08;74.13;102078.16;20463494;28;20043;-57
2023/03/16 01:53:39;;;;;;;;;;;;;;;3.00;72.66;102064.34;20457767;28;19926;-58
2023/03/16 02:04:13;;;;;;;;;;;;;;;2.93;74.79;102039.50;20454097;28;19950;-58
2023/03/16 02:14:35;;;;;;;;;;;;;;;2.83;74.90;102027.38;20477332;28;19958;-57
2023/03/16 02:24:56;;;;;;;;;;;;;;;2.84;74.12;102023.09;20461641;28;19926;-57
2023/03/16 02:35:18;;;;;;;;;;;;;;;2.77;73.94;102013.59;20462623;28;19987;-58
2023/03/16 02:45:45;;;;;;;;;;;;;;;2.75;73.77;102018.69;20450043;28;19923;-58
2023/03/16 02:56:06;;;;;;;;;;;;;;;2.72;74.91;102021.19;20472998;28;20093;-57
2023/03/16 03:06:28;;;;;;;;;;;;;;;2.69;74.18;102013.44;20454800;28;19931;-56
2023/03/16 03:16:51;;;;;;;;;;;;;;;2.70;75.20;102007.50;20454226;28;19926;-56
2023/03/16 03:27:12;;;;;;;;;;;;;;;2.65;75.43;102003.13;20434965;28;19923;-57
2023/03/16 03:37:34;;;;;;;;;;;;;;;2.68;75.60;102015.97;20457476;28;19977;-56
2023/03/16 03:47:55;;;;;;;;;;;;;;;2.68;74.84;102006.63;20476739;28;19989;-56
2023/03/16 03:58:16;;;;;;;;;;;;;;;2.74;75.77;102014.41;20453159;28;19930;-57
2023/03/16 04:08:38;;;;;;;;;;;;;;;2.79;73.98;102004.28;20459815;28;19922;-58
2023/03/16 04:19:00;;;;;;;;;;;;;;;2.83;74.11;101991.59;20464234;28;19942;-56
2023/03/16 04:29:24;;;;;;;;;;;;;;;2.95;73.32;101998.63;20483195;28;19923;-56
2023/03/16 04:39:45;;;;;;;;;;;;;;;3.05;72.68;101968.19;20459943;28;19922;-56
2023/03/16 04:50:07;;;;;;;;;;;;;;;3.22;72.36;101965.94;20465034;28;20394;-58
2023/03/16 05:00:28;;;;;;;;;;;;;;;3.34;71.88;101949.94;20468317;28;19922;-57
2023/03/16 05:10:54;;;;;;;;;;;;;;;3.41;71.03;101938.97;20470890;28;19982;-57
2023/03/16 05:21:16;;;;;;;;;;;;;;;3.44;70.34;101941.59;20469233;28;20405;-56
2023/03/16 05:31:37;;;;;;;;;;;;;;;3.50;69.75;101928.91;20470872;28;19970;-56
2023/03/16 05:41:59;;;;;;;;;;;;;;;3.54;68.55;101908.50;20456524;28;19933;-57
2023/03/16 05:52:24;;;;;;;;;;;;;;;3.63;70.19;101925.69;20460482;28;19927;-57
2023/03/16 06:02:47;;;;;;;;;;;;;;;3.76;69.49;101914.81;20471185;28;19931;-58
2023/03/16 06:13:08;;;;;;;;;;;;;;;3.85;70.45;101920.06;20453239;28;19930;-56
2023/03/16 06:23:30;;;;;;;;;;;;;;;3.92;70.33;101927.00;20472575;28;20374;-58
2023/03/16 06:33:51;;;;;;;;;;;;;;;4.03;69.96;101921.19;20457272;28;19978;-56
2023/03/16 06:44:12;;;;;;;;;;;;;;;4.14;69.44;101929.00;20447385;28;19930;-58
2023/03/16 06:54:36;;;;;;;;;;;;;;;4.28;69.28;101931.78;20472598;28;19923;-56
2023/03/16 07:04:57;;;;;;;;;;;;;;;4.45;69.75;101928.56;20452204;28;19970;-57
2023/03/16 07:15:19;;;;;;;;;;;;;;;4.61;68.66;101921.94;20470980;28;20062;-57
2023/03/16 07:25:41;;;;;;;;;;;;;;;4.80;67.64;101927.28;20456674;28;20286;-56
2023/03/16 07:36:03;;;;;;;;;;;;;;;4.94;67.55;101923.16;20459143;28;20374;-56
2023/03/16 07:46:24;;;;;;;;;;;;;;;5.09;64.84;101927.63;20464456;28;19923;-58
2023/03/16 07:56:46;;;;;;;;;;;;;;;5.23;67.68;101925.16;20465148;28;19974;-56
2023/03/16 08:07:11;;;;;;;;;;;;;;;5.38;66.68;101930.44;20449791;28;19988;-57
2023/03/16 08:17:33;;;;;;;;;;;;;;;5.56;66.84;101930.59;20468960;28;19922;-56
2023/03/16 08:27:54;;;;;;;;;;;;;;;5.70;65.63;101929.00;20462347;28;19933;-56
2023/03/16 08:38:16;;;;;;;;;;;;;;;5.83;66.32;101915.44;20465157;28;19922;-56
2023/03/16 08:48:41;;;;;;;;;;;;;;;5.99;64.65;101918.09;20492694;28;19950;-57
2023/03/16 08:59:02;;;;;;;;;;;;;;;6.23;64.49;101919.94;20466882;28;19926;-56
2023/03/16 09:09:24;;;;;;;;;;;;;;;6.46;65.36;101909.78;20454583;28;19926;-58
2023/03/16 09:19:45;;;;;;;;;;;;;;;6.58;64.95;101909.81;20459001;28;19970;-56
2023/03/16 09:30:13;;;;;;;;;;;;;;;6.75;65.19;101909.03;20454132;28;19949;-58
2023/03/16 09:40:35;;;;;;;;;;;;;;;6.89;64.71;101903.91;20463671;28;20397;-56
2023/03/16 09:50:58;;;;;;;;;;;;;;;7.09;65.08;101895.38;20461278;28;19922;-57
2023/03/16 10:01:39;;;;;;;;;;;;;;;7.32;64.25;101886.81;20469021;28;19949;-57
2023/03/16 10:12:02;;;;;;;;;;;;;;;7.56;63.70;101876.53;20471404;28;19930;-58
2023/03/16 10:22:25;;;;;;;;;;;;;;;7.83;62.98;101876.47;20460342;28;19922;-57
2023/03/16 10:32:48;;;;;;;;;;;;;;;8.07;63.99;101868.69;20445352;28;19970;-57
2023/03/16 10:43:13;;;;;;;;;;;;;;;8.35;63.84;101872.06;20448553;28;19934;-57
2023/03/16 10:53:35;;;;;;;;;;;;;;;8.50;61.67;101846.19;20448562;28;19926;-57
2023/03/16 11:03:57;;;;;;;;;;;;;;;8.70;62.06;101845.22;20462880;28;19926;-58
2023/03/16 11:14:24;;;;;;;;;;;;;;;9.03;62.27;101852.72;20451713;28;19923;-57
2023/03/16 11:24:55;;;;;;;;;;;;;;;9.21;62.07;101823.31;20445429;28;20347;-57
2023/03/16 11:35:19;;;;;;;;;;;;;;;9.47;61.30;101799.88;20462107;28;20311;-57
2023/03/16 11:45:47;;;;;;;;;;;;;;;9.59;63.65;101789.41;20464018;28;19985;-58
2023/03/16 11:56:11;;;;;;;;;;;;;;;9.63;61.18;101778.16;20457055;28;19922;-56
2023/03/16 12:06:39;;;;;;;;;;;;;;;9.66;63.68;101789.31;20455396;28;19958;-57
2023/03/16 12:17:16;;;;;;;;;;;;;;;9.77;62.33;101773.69;20449329;28;19934;-57
2023/03/16 12:27:40;;;;;;;;;;;;;;;9.74;62.14;101773.72;20480054;28;19923;-58
2023/03/16 12:38:07;;;;;;;;;;;;;;;9.74;61.65;101756.47;20468661;28;19931;-58
2023/03/16 12:48:35;;;;;;;;;;;;;;;9.51;62.94;101737.81;20467977;28;19926;-57
2023/03/16 12:58:59;;;;;;;;;;;;;;;9.45;63.51;101731.88;20488169;28;19923;-58
2023/03/16 13:09:24;;;;;;;;;;;;;;;9.34;62.53;101737.13;20459664;28;19926;-56
2023/03/16 13:20:05;;;;;;;;;;;;;;;9.17;65.91;101738.16;20465647;28;19922;-56
2023/03/16 13:30:29;;;;;;;;;;;;;;;8.91;67.89;101731.53;20455145;28;19961;-57
2023/03/16 13:40:52;;;;;;;;;;;;;;;8.53;72.58;101692.28;20461471;28;19939;-59
2023/03/16 13:51:16;;;;;;;;;;;;;;;8.59;70.70;101658.69;20462412;28;20326;-58
2023/03/16 14:01:37;;;;;;;;;;;;;;;8.81;70.11;101642.16;20460932;28;19946;-58
2023/03/16 14:11:59;;;;;;;;;;;;;;;9.08;68.80;101620.38;20465172;28;19986;-56
2023/03/16 14:22:22;;;;;;;;;;;;;;;9.39;66.30;101595.88;20449124;28;20317;-57
2023/03/16 14:32:59;;;;;;;;;;;;;;;9.67;65.43;101565.38;20459330;28;19927;-56
2023/03/16 14:43:25;;;;;;;;;;;;;;;9.91;66.63;101528.78;20472789;28;19933;-57
2023/03/16 14:53:47;;;;;;;;;;;;;;;10.06;62.91;101523.38;20450682;28;20051;-57
2023/03/16 15:04:12;;;;;;;;;;;;;;;10.05;64.11;101506.16;20458653;28;19956;-58
2023/03/16 15:25:23;;;;;;;;;;;;;;;10.13;64.07;101488.81;20456939;28;20346;-57
2023/03/16 15:35:45;;;;;;;;;;;;;;;10.08;62.80;101506.09;20462361;28;19927;-57
2023/03/16 15:46:08;;;;;;;;;;;;;;;10.03;62.92;101479.47;20466077;28;19961;-57
2023/03/16 15:56:33;;;;;;;;;;;;;;;9.87;62.77;101475.47;20491098;28;19923;-56
2023/03/16 16:07:09;;;;;;;;;;;;;;;9.81;61.81;101460.03;20464993;28;19930;-59
2023/03/16 16:17:31;;;;;;;;;;;;;;;9.71;62.77;101443.84;20467451;28;19989;-57
2023/03/16 16:28:15;;;;;;;;;;;;;;;9.64;62.75;101446.53;20460873;28;19922;-58
2023/03/16 16:38:36;;;;;;;;;;;;;;;9.53;61.30;101436.38;20458341;28;19978;-59
2023/03/16 16:49:00;;;;;;;;;;;;;;;9.47;62.00;101428.72;20455131;28;19931;-57
2023/03/16 16:59:23;;;;;;;;;;;;;;;9.47;61.68;101441.63;20480570;28;19929;-57
2023/03/16 17:09:45;;;;;;;;;;;;;;;9.36;62.44;101430.63;20456770;28;20402;-58
2023/03/16 17:20:13;;;;;;;;;;;;;;;9.25;62.59;101417.00;20473342;28;19973;-57
2023/03/16 17:30:34;;;;;;;;;;;;;;;9.08;63.27;101409.53;20464117;28;19926;-57
2023/03/16 17:40:56;;;;;;;;;;;;;;;8.93;63.46;101420.09;20463989;28;20382;-57
2023/03/16 17:51:19;;;;;;;;;;;;;;;8.73;62.98;101406.59;20445586;28;20421;-57
2023/03/16 18:01:40;;;;;;;;;;;;;;;8.73;63.72;101405.75;20448081;28;19926;-57
2023/03/16 18:12:02;;;;;;;;;;;;;;;8.64;63.24;101411.03;20466900;28;19929;-58
2023/03/16 18:22:23;;;;;;;;;;;;;;;8.49;63.04;101417.22;20453427;28;20354;-57
2023/03/16 18:32:45;;;;;;;;;;;;;;;8.48;61.30;101425.81;20469217;28;19977;-57
2023/03/16 18:43:12;;;;;;;;;;;;;;;8.39;61.24;101427.66;20460020;28;20016;-57
2023/03/16 18:53:33;;;;;;;;;;;;;;;8.27;61.81;101404.59;20478818;28;19930;-57
2023/03/16 19:03:55;;;;;;;;;;;;;;;8.22;61.41;101394.31;20446161;28;19922;-57
2023/03/16 19:14:23;;;;;;;;;;;;;;;8.15;63.72;101379.75;20459923;28;19922;-58
2023/03/16 19:24:45;;;;;;;;;;;;;;;8.14;62.05;101371.19;20471661;28;19922;-57
2023/03/16 19:35:14;;;;;;;;;;;;;;;8.13;62.99;101355.72;20452115;28;19923;-57
2023/03/16 19:45:37;;;;;;;;;;;;;;;8.16;63.26;101353.13;20453622;28;19930;-57
2023/03/16 19:55:59;;;;;;;;;;;;;;;8.22;61.84;101334.16;20445277;28;20017;-56
2023/03/16 20:06:21;;;;;;;;;;;;;;;8.30;61.48;101317.75;20469030;28;20267;-57
2023/03/16 20:16:43;;;;;;;;;;;;;;;8.30;63.36;101311.72;20450955;28;20088;-58
2023/03/16 20:27:08;;;;;;;;;;;;;;;8.28;59.01;101308.34;20468518;28;19926;-58
2023/03/16 20:37:30;;;;;;;;;;;;;;;8.38;61.37;101291.88;20478175;28;19927;-57
2023/03/16 20:47:52;;;;;;;;;;;;;;;8.38;62.69;101274.69;20464132;28;20429;-57
2023/03/16 20:58:21;;;;;;;;;;;;;;;8.36;64.42;101271.25;20463260;28;19927;-59
2023/03/16 21:08:43;;;;;;;;;;;;;;;8.30;63.58;101240.41;20468285;28;20293;-58
2023/03/16 21:19:10;;;;;;;;;;;;;;;8.20;64.29;101228.50;20467365;28;20385;-57
2023/03/16 21:29:31;;;;;;;;;;;;;;;8.20;65.51;101218.19;20471114;28;19981;-59
2023/03/16 21:39:53;;;;;;;;;;;;;;;8.05;65.88;101215.81;20475521;28;19930;-57
2023/03/16 21:50:19;;;;;;;;;;;;;;;8.02;66.67;101239.06;20457179;28;19933;-57
2023/03/16 22:00:41;;;;;;;;;;;;;;;7.94;65.90;101230.56;20469679;28;19977;-59
2023/03/16 22:11:09;;;;;;;;;;;;;;;7.92;67.57;101216.84;20458844;28;19927;-58
2023/03/16 22:21:36;;;;;;;;;;;;;;;7.85;67.78;101192.03;20457916;28;19977;-57
2023/03/16 22:32:00;;;;;;;;;;;;;;;7.80;67.84;101183.53;20468038;28;19931;-57
2023/03/16 22:42:32;;;;;;;;;;;;;;;7.75;69.05;101195.59;20456475;28;19934;-58
2023/03/16 22:52:56;;;;;;;;;;;;;;;7.70;69.55;101184.50;20454489;28;19984;-58
2023/03/16 23:03:19;;;;;;;;;;;;;;;7.72;69.52;101167.31;20446232;28;19945;-59
2023/03/16 23:13:41;;;;;;;;;;;;;;;7.71;70.69;101161.31;20460552;28;19926;-57
2023/03/16 23:24:03;;;;;;;;;;;;;;;7.71;70.50;101165.63;20443523;28;19973;-57
2023/03/16 23:34:25;;;;;;;;;;;;;;;7.67;70.95;101161.38;20463918;28;20462;-57
2023/03/16 23:44:46;;;;;;;;;;;;;;;7.70;71.32;101176.78;20443771;28;19929;-58
2023/03/16 23:55:13;;;;;;;;;;;;;;;7.66;71.62;101173.41;20470688;28;19926;-59
